sensor_id;sensor_type;location;lat;lon;timestamp;pressure;altitude;pressure_sealevel;temperature;humidity
45403;BME280;47427;51.976;5.326;2023-07-31T00:00:52;100911.09;;;15.57;100.00
45403;BME280;47427;51.976;5.326;2023-07-31T00:03:55;100902.28;;;15.56;100.00
45403;BME280;47427;51.976;5.326;2023-07-31T00:06:58;100903.31;;;15.71;100.00
45403;BME280;47427;51.976;5.326;2023-07-31T00:10:03;100903.34;;;15.77;100.00
45403;BME280;47427;51.976;5.326;2023-07-31T00:13:09;100891.06;;;15.90;100.00
45403;BME280;47427;51.976;5.326;2023-07-31T00:16:14;100893.75;;;15.99;100.00
45403;BME280;47427;51.976;5.326;2023-07-31T00:19:17;100879.66;;;16.08;100.00
45403;BME280;47427;51.976;5.326;2023-07-31T00:22:20;100883.28;;;16.20;100.00
45403;BME280;47427;51.976;5.326;2023-07-31T00:25:22;100883.28;;;16.27;100.00
45403;BME280;47427;51.976;5.326;2023-07-31T00:28:24;100883.31;;;16.34;100.00
45403;BME280;47427;51.976;5.326;2023-07-31T00:31:27;100884.19;;;16.39;100.00
45403;BME280;47427;51.976;5.326;2023-07-31T00:34:30;100884.22;;;16.44;100.00
45403;BME280;47427;51.976;5.326;2023-07-31T00:37:32;100885.97;;;16.48;100.00
45403;BME280;47427;51.976;5.326;2023-07-31T00:40:36;100878.94;;;16.49;100.00
45403;BME280;47427;51.976;5.326;2023-07-31T00:43:41;100887.75;;;16.55;100.00
45403;BME280;47427;51.976;5.326;2023-07-31T00:46:44;100883.34;;;16.57;100.00
45403;BME280;47427;51.976;5.326;2023-07-31T00:49:46;100882.47;;;16.54;100.00
45403;BME280;47427;51.976;5.326;2023-07-31T00:52:51;100900.13;;;16.52;100.00
45403;BME280;47427;51.976;5.326;2023-07-31T00:55:54;100880.72;;;16.51;100.00
45403;BME280;47427;51.976;5.326;2023-07-31T00:58:57;100875.44;;;16.59;100.00
45403;BME280;47427;51.976;5.326;2023-07-31T01:02:00;100869.25;;;16.57;100.00
45403;BME280;47427;51.976;5.326;2023-07-31T01:05:02;100878.94;;;16.52;100.00
45403;BME280;47427;51.976;5.326;2023-07-31T01:11:22;100878.06;;;16.54;100.00
45403;BME280;47427;51.976;5.326;2023-07-31T01:14:26;100880.69;;;16.50;100.00
45403;BME280;47427;51.976;5.326;2023-07-31T01:17:31;100872.75;;;16.56;100.00
45403;BME280;47427;51.976;5.326;2023-07-31T01:20:34;100865.69;;;16.61;100.00
45403;BME280;47427;51.976;5.326;2023-07-31T01:27:30;100862.19;;;16.69;100.00
45403;BME280;47427;51.976;5.326;2023-07-31T01:30:33;100863.06;;;16.67;100.00
45403;BME280;47427;51.976;5.326;2023-07-31T01:33:37;100867.50;;;16.71;100.00
45403;BME280;47427;51.976;5.326;2023-07-31T01:36:46;100870.19;;;16.85;100.00
45403;BME280;47427;51.976;5.326;2023-07-31T01:39:49;100871.94;;;16.86;100.00
45403;BME280;47427;51.976;5.326;2023-07-31T01:42:52;100871.06;;;16.78;100.00
45403;BME280;47427;51.976;5.326;2023-07-31T01:45:53;100879.84;;;16.69;100.00
45403;BME280;47427;51.976;5.326;2023-07-31T01:48:56;100881.59;;;16.58;100.00
45403;BME280;47427;51.976;5.326;2023-07-31T01:52:06;100872.75;;;16.43;100.00
45403;BME280;47427;51.976;5.326;2023-07-31T01:55:09;100886.81;;;16.24;100.00
45403;BME280;47427;51.976;5.326;2023-07-31T01:58:11;100870.03;;;16.22;100.00
45403;BME280;47427;51.976;5.326;2023-07-31T02:01:14;100859.44;;;16.25;100.00
45403;BME280;47427;51.976;5.326;2023-07-31T02:04:17;100849.75;;;16.27;100.00
45403;BME280;47427;51.976;5.326;2023-07-31T02:07:19;100859.41;;;16.17;100.00
45403;BME280;47427;51.976;5.326;2023-07-31T02:10:21;100857.69;;;16.25;100.00
45403;BME280;47427;51.976;5.326;2023-07-31T02:13:24;100844.47;;;16.25;100.00
45403;BME280;47427;51.976;5.326;2023-07-31T02:16:27;100848.00;;;16.37;100.00
45403;BME280;47427;51.976;5.326;2023-07-31T02:19:29;100832.97;;;16.30;100.00
45403;BME280;47427;51.976;5.326;2023-07-31T02:22:33;100834.72;;;16.28;100.00
45403;BME280;47427;51.976;5.326;2023-07-31T02:25:37;100825.03;;;16.23;100.00
45403;BME280;47427;51.976;5.326;2023-07-31T02:28:40;100829.47;;;16.37;100.00
45403;BME280;47427;51.976;5.326;2023-07-31T02:31:47;100827.69;;;16.33;100.00
45403;BME280;47427;51.976;5.326;2023-07-31T02:34:52;100823.25;;;16.27;100.00
45403;BME280;47427;51.976;5.326;2023-07-31T02:37:54;100815.34;;;16.29;100.00
45403;BME280;47427;51.976;5.326;2023-07-31T02:40:59;100815.34;;;16.25;100.00
45403;BME280;47427;51.976;5.326;2023-07-31T02:44:02;100819.75;;;16.33;100.00
45403;BME280;47427;51.976;5.326;2023-07-31T02:47:05;100810.94;;;16.31;100.00
45403;BME280;47427;51.976;5.326;2023-07-31T02:50:09;100816.22;;;16.43;100.00
45403;BME280;47427;51.976;5.326;2023-07-31T02:53:12;100818.03;;;16.49;100.00
45403;BME280;47427;51.976;5.326;2023-07-31T02:56:15;100815.38;;;16.58;100.00
45403;BME280;47427;51.976;5.326;2023-07-31T02:59:20;100812.72;;;16.53;100.00
45403;BME280;47427;51.976;5.326;2023-07-31T03:02:22;100811.84;;;16.50;100.00
45403;BME280;47427;51.976;5.326;2023-07-31T03:05:27;100813.59;;;16.60;100.00
45403;BME280;47427;51.976;5.326;2023-07-31T03:08:33;100818.00;;;16.58;100.00
45403;BME280;47427;51.976;5.326;2023-07-31T03:11:38;100806.56;;;16.51;100.00
45403;BME280;47427;51.976;5.326;2023-07-31T03:14:39;100802.09;;;16.53;100.00
45403;BME280;47427;51.976;5.326;2023-07-31T03:17:48;100807.44;;;16.49;100.00
45403;BME280;47427;51.976;5.326;2023-07-31T03:20:51;100799.44;;;16.45;100.00
45403;BME280;47427;51.976;5.326;2023-07-31T03:23:53;100803.03;;;16.54;100.00
45403;BME280;47427;51.976;5.326;2023-07-31T03:26:56;100797.69;;;16.55;100.00
45403;BME280;47427;51.976;5.326;2023-07-31T03:29:59;100780.06;;;16.57;100.00
45403;BME280;47427;51.976;5.326;2023-07-31T03:33:01;100792.41;;;16.52;100.00
45403;BME280;47427;51.976;5.326;2023-07-31T03:36:04;100786.25;;;16.49;100.00
45403;BME280;47427;51.976;5.326;2023-07-31T03:39:08;100793.28;;;16.53;100.00
45403;BME280;47427;51.976;5.326;2023-07-31T03:42:10;100787.13;;;16.46;100.00
45403;BME280;47427;51.976;5.326;2023-07-31T03:45:13;100798.56;;;16.40;100.00
45403;BME280;47427;51.976;5.326;2023-07-31T03:48:18;100788.00;;;16.42;100.00
45403;BME280;47427;51.976;5.326;2023-07-31T03:51:21;100792.41;;;16.46;100.00
45403;BME280;47427;51.976;5.326;2023-07-31T03:54:22;100788.00;;;16.42;100.00
45403;BME280;47427;51.976;5.326;2023-07-31T03:57:32;100790.63;;;16.45;100.00
45403;BME280;47427;51.976;5.326;2023-07-31T04:00:35;100786.25;;;16.49;100.00
45403;BME280;47427;51.976;5.326;2023-07-31T04:03:38;100781.81;;;16.46;100.00
45403;BME280;47427;51.976;5.326;2023-07-31T04:06:41;100777.41;;;16.50;100.00
45403;BME280;47427;51.976;5.326;2023-07-31T04:09:44;100771.22;;;16.51;100.00
45403;BME280;47427;51.976;5.326;2023-07-31T04:12:46;100768.56;;;16.60;100.00
45403;BME280;47427;51.976;5.326;2023-07-31T04:15:50;100764.16;;;16.60;100.00
45403;BME280;47427;51.976;5.326;2023-07-31T04:18:53;100758.84;;;16.63;100.00
45403;BME280;47427;51.976;5.326;2023-07-31T04:21:55;100748.28;;;16.59;100.00
45403;BME280;47427;51.976;5.326;2023-07-31T04:24:57;100750.03;;;16.58;100.00
45403;BME280;47427;51.976;5.326;2023-07-31T04:28:03;100739.44;;;16.71;100.00
45403;BME280;47427;51.976;5.326;2023-07-31T04:31:05;100748.28;;;16.74;100.00
45403;BME280;47427;51.976;5.326;2023-07-31T04:34:07;100742.06;;;16.71;100.00
45403;BME280;47427;51.976;5.326;2023-07-31T04:37:10;100745.63;;;16.62;100.00
45403;BME280;47427;51.976;5.326;2023-07-31T04:40:13;100749.16;;;16.58;100.00
45403;BME280;47427;51.976;5.326;2023-07-31T04:43:16;100742.09;;;16.52;100.00
45403;BME280;47427;51.976;5.326;2023-07-31T04:46:18;100748.25;;;16.30;100.00
45403;BME280;47427;51.976;5.326;2023-07-31T04:49:20;100750.91;;;16.39;100.00
45403;BME280;47427;51.976;5.326;2023-07-31T04:52:25;100742.06;;;16.35;100.00
45403;BME280;47427;51.976;5.326;2023-07-31T04:55:28;100731.50;;;16.40;100.00
45403;BME280;47427;51.976;5.326;2023-07-31T04:58:31;100742.09;;;16.40;100.00
45403;BME280;47427;51.976;5.326;2023-07-31T05:01:32;100738.56;;;16.29;100.00
45403;BME280;47427;51.976;5.326;2023-07-31T05:04:34;100730.59;;;16.16;100.00
45403;BME280;47427;51.976;5.326;2023-07-31T05:07:40;100735.84;;;16.07;100.00
45403;BME280;47427;51.976;5.326;2023-07-31T05:10:43;100745.56;;;16.03;100.00
45403;BME280;47427;51.976;5.326;2023-07-31T05:13:44;100733.22;;;16.06;100.00
45403;BME280;47427;51.976;5.326;2023-07-31T05:16:50;100734.06;;;15.88;100.00
45403;BME280;47427;51.976;5.326;2023-07-31T05:19:55;100737.56;;;15.76;100.00
45403;BME280;47427;51.976;5.326;2023-07-31T05:22:57;100731.34;;;15.68;100.00
45403;BME280;47427;51.976;5.326;2023-07-31T05:26:05;100728.72;;;15.69;100.00
45403;BME280;47427;51.976;5.326;2023-07-31T05:29:08;100726.03;;;15.66;100.00
45403;BME280;47427;51.976;5.326;2023-07-31T05:32:11;100717.19;;;15.64;100.00
45403;BME280;47427;51.976;5.326;2023-07-31T05:35:14;100711.00;;;15.62;100.00
45403;BME280;47427;51.976;5.326;2023-07-31T05:38:17;100710.22;;;15.71;100.00
45403;BME280;47427;51.976;5.326;2023-07-31T05:41:20;100702.19;;;15.61;100.00
45403;BME280;47427;51.976;5.326;2023-07-31T05:44:23;100703.97;;;15.67;100.00
45403;BME280;47427;51.976;5.326;2023-07-31T05:47:25;100703.97;;;15.67;100.00
45403;BME280;47427;51.976;5.326;2023-07-31T05:50:30;100703.97;;;15.64;100.00
45403;BME280;47427;51.976;5.326;2023-07-31T05:53:32;100684.66;;;15.79;100.00
45403;BME280;47427;51.976;5.326;2023-07-31T05:56:38;100691.72;;;15.83;100.00
45403;BME280;47427;51.976;5.326;2023-07-31T05:59:43;100686.44;;;15.80;100.00
45403;BME280;47427;51.976;5.326;2023-07-31T06:02:47;100684.66;;;15.80;100.00
45403;BME280;47427;51.976;5.326;2023-07-31T06:05:49;100678.50;;;15.91;100.00
45403;BME280;47427;51.976;5.326;2023-07-31T06:08:54;100678.50;;;15.89;100.00
45403;BME280;47427;51.976;5.326;2023-07-31T06:11:57;100679.38;;;15.94;100.00
45403;BME280;47427;51.976;5.326;2023-07-31T06:15:02;100673.22;;;15.94;100.00
45403;BME280;47427;51.976;5.326;2023-07-31T06:18:04;100670.56;;;15.86;100.00
45403;BME280;47427;51.976;5.326;2023-07-31T06:21:10;100680.25;;;15.87;100.00
45403;BME280;47427;51.976;5.326;2023-07-31T06:24:13;100666.16;;;15.96;100.00
45403;BME280;47427;51.976;5.326;2023-07-31T06:27:21;100660.84;;;15.90;100.00
45403;BME280;47427;51.976;5.326;2023-07-31T06:30:31;100667.94;;;15.91;100.00
45403;BME280;47427;51.976;5.326;2023-07-31T06:33:34;100667.03;;;15.99;100.00
45403;BME280;47427;51.976;5.326;2023-07-31T06:36:36;100662.66;;;16.06;100.00
45403;BME280;47427;51.976;5.326;2023-07-31T06:39:39;100652.06;;;16.01;100.00
45403;BME280;47427;51.976;5.326;2023-07-31T06:42:43;100648.53;;;16.16;100.00
45403;BME280;47427;51.976;5.326;2023-07-31T06:45:46;100636.16;;;16.12;100.00
45403;BME280;47427;51.976;5.326;2023-07-31T06:48:57;100630.91;;;16.23;100.00
45403;BME280;47427;51.976;5.326;2023-07-31T06:52:00;100631.75;;;16.43;100.00
45403;BME280;47427;51.976;5.326;2023-07-31T06:55:22;100624.69;;;16.39;100.00
45403;BME280;47427;51.976;5.326;2023-07-31T06:58:24;100629.06;;;16.62;100.00
45403;BME280;47427;51.976;5.326;2023-07-31T07:01:26;100622.88;;;16.66;100.00
45403;BME280;47427;51.976;5.326;2023-07-31T07:04:31;100614.94;;;16.61;100.00
45403;BME280;47427;51.976;5.326;2023-07-31T07:07:33;100621.09;;;16.80;100.00
45403;BME280;47427;51.976;5.326;2023-07-31T07:10:37;100607.84;;;16.85;100.00
45403;BME280;47427;51.976;5.326;2023-07-31T07:13:39;100621.09;;;16.86;100.00
45403;BME280;47427;51.976;5.326;2023-07-31T07:16:42;100619.34;;;16.82;100.00
45403;BME280;47427;51.976;5.326;2023-07-31T07:19:44;100620.19;;;16.86;100.00
45403;BME280;47427;51.976;5.326;2023-07-31T07:22:48;100612.19;;;17.04;100.00
45403;BME280;47427;51.976;5.326;2023-07-31T07:25:51;100611.38;;;16.92;100.00
45403;BME280;47427;51.976;5.326;2023-07-31T07:28:56;100620.22;;;16.81;100.00
45403;BME280;47427;51.976;5.326;2023-07-31T07:31:59;100612.25;;;16.83;100.00
45403;BME280;47427;51.976;5.326;2023-07-31T07:35:01;100611.41;;;16.84;100.00
45403;BME280;47427;51.976;5.326;2023-07-31T07:38:04;100624.59;;;16.90;100.00
45403;BME280;47427;51.976;5.326;2023-07-31T07:41:09;100620.16;;;16.98;100.00
45403;BME280;47427;51.976;5.326;2023-07-31T07:44:11;100613.97;;;17.01;100.00
45403;BME280;47427;51.976;5.326;2023-07-31T07:47:17;100616.56;;;17.13;100.00
45403;BME280;47427;51.976;5.326;2023-07-31T07:50:22;100616.63;;;16.99;100.00
45403;BME280;47427;51.976;5.326;2023-07-31T07:53:24;100620.13;;;17.06;100.00
45403;BME280;47427;51.976;5.326;2023-07-31T07:56:26;100609.59;;;16.92;100.00
45403;BME280;47427;51.976;5.326;2023-07-31T07:59:29;100609.56;;;16.95;100.00
45403;BME280;47427;51.976;5.326;2023-07-31T08:02:32;100603.31;;;17.11;100.00
45403;BME280;47427;51.976;5.326;2023-07-31T08:05:35;100608.50;;;17.38;100.00
45403;BME280;47427;51.976;5.326;2023-07-31T08:08:38;100600.66;;;17.18;100.00
45403;BME280;47427;51.976;5.326;2023-07-31T08:11:41;100608.53;;;17.30;100.00
45403;BME280;47427;51.976;5.326;2023-07-31T08:14:43;100601.41;;;17.40;100.00
45403;BME280;47427;51.976;5.326;2023-07-31T08:17:46;100596.94;;;17.48;100.00
45403;BME280;47427;51.976;5.326;2023-07-31T08:20:49;100595.22;;;17.39;100.00
45403;BME280;47427;51.976;5.326;2023-07-31T08:23:53;100595.22;;;17.42;100.00
45403;BME280;47427;51.976;5.326;2023-07-31T08:26:56;100593.28;;;17.66;100.00
45403;BME280;47427;51.976;5.326;2023-07-31T08:29:59;100596.91;;;17.49;100.00
45403;BME280;47427;51.976;5.326;2023-07-31T08:33:02;100592.59;;;17.38;100.00
45403;BME280;47427;51.976;5.326;2023-07-31T08:36:04;100595.22;;;17.36;100.00
45403;BME280;47427;51.976;5.326;2023-07-31T08:39:09;100597.88;;;17.36;100.00
45403;BME280;47427;51.976;5.326;2023-07-31T08:42:11;100591.72;;;17.32;100.00
45403;BME280;47427;51.976;5.326;2023-07-31T08:45:16;100585.53;;;17.35;100.00
45403;BME280;47427;51.976;5.326;2023-07-31T08:48:20;100591.63;;;17.51;100.00
45403;BME280;47427;51.976;5.326;2023-07-31T08:51:23;100586.31;;;17.51;100.00
45403;BME280;47427;51.976;5.326;2023-07-31T08:54:26;100581.84;;;17.58;100.00
45403;BME280;47427;51.976;5.326;2023-07-31T08:57:35;100591.44;;;17.83;100.00
45403;BME280;47427;51.976;5.326;2023-07-31T09:00:38;100583.50;;;17.75;100.00
45403;BME280;47427;51.976;5.326;2023-07-31T09:03:43;100590.53;;;17.84;100.00
45403;BME280;47427;51.976;5.326;2023-07-31T09:06:48;100589.72;;;17.70;100.00
45403;BME280;47427;51.976;5.326;2023-07-31T09:09:56;100591.53;;;17.63;100.00
45403;BME280;47427;51.976;5.326;2023-07-31T09:12:59;100593.81;;;18.14;100.00
45403;BME280;47427;51.976;5.326;2023-07-31T09:16:00;100589.31;;;18.22;100.00
45403;BME280;47427;51.976;5.326;2023-07-31T09:19:02;100584.25;;;17.94;100.00
45403;BME280;47427;51.976;5.326;2023-07-31T09:22:06;100579.75;;;18.04;100.00
45403;BME280;47427;51.976;5.326;2023-07-31T09:28:19;100568.81;;;18.36;100.00
45403;BME280;47427;51.976;5.326;2023-07-31T09:34:38;100566.22;;;18.30;100.00
45403;BME280;47427;51.976;5.326;2023-07-31T09:37:42;100560.78;;;18.44;100.00
45403;BME280;47427;51.976;5.326;2023-07-31T09:40:46;100568.56;;;18.59;100.00
45403;BME280;47427;51.976;5.326;2023-07-31T09:43:54;100572.94;;;18.65;100.00
45403;BME280;47427;51.976;5.326;2023-07-31T09:46:56;100565.97;;;18.55;100.00
45403;BME280;47427;51.976;5.326;2023-07-31T09:50:07;100561.56;;;18.54;100.00
45403;BME280;47427;51.976;5.326;2023-07-31T09:53:09;100571.75;;;18.91;100.00
45403;BME280;47427;51.976;5.326;2023-07-31T09:56:14;100571.19;;;19.34;100.00
45403;BME280;47427;51.976;5.326;2023-07-31T09:59:18;100557.59;;;19.55;100.00
45403;BME280;47427;51.976;5.326;2023-07-31T10:02:22;100566.06;;;19.82;100.00
45403;BME280;47427;51.976;5.326;2023-07-31T10:05:25;100557.25;;;19.77;100.00
45403;BME280;47427;51.976;5.326;2023-07-31T10:08:34;100560.63;;;19.88;100.00
45403;BME280;47427;51.976;5.326;2023-07-31T10:11:47;100561.31;;;20.01;100.00
45403;BME280;47427;51.976;5.326;2023-07-31T10:14:52;100550.13;;;19.79;100.00
45403;BME280;47427;51.976;5.326;2023-07-31T10:17:55;100557.19;;;19.83;100.00
45403;BME280;47427;51.976;5.326;2023-07-31T10:20:57;100551.38;;;20.10;100.00
45403;BME280;47427;51.976;5.326;2023-07-31T10:23:59;100554.84;;;20.16;100.00
45403;BME280;47427;51.976;5.326;2023-07-31T10:27:02;100548.78;;;20.06;100.00
45403;BME280;47427;51.976;5.326;2023-07-31T10:30:09;100549.44;;;20.19;100.00
45403;BME280;47427;51.976;5.326;2023-07-31T10:33:17;100553.22;;;20.55;100.00
45403;BME280;47427;51.976;5.326;2023-07-31T10:36:19;100542.88;;;20.83;100.00
45403;BME280;47427;51.976;5.326;2023-07-31T10:39:38;100549.88;;;19.92;100.00
45403;BME280;47427;51.976;5.326;2023-07-31T10:42:49;100550.28;;;19.69;100.00
45403;BME280;47427;51.976;5.326;2023-07-31T10:45:55;100553.28;;;20.02;100.00
45403;BME280;47427;51.976;5.326;2023-07-31T10:48:58;100551.19;;;19.67;100.00
45403;BME280;47427;51.976;5.326;2023-07-31T10:52:03;100560.72;;;19.82;100.00
45403;BME280;47427;51.976;5.326;2023-07-31T10:55:27;100560.38;;;19.47;100.00
45403;BME280;47427;51.976;5.326;2023-07-31T10:58:29;100564.41;;;19.13;100.00
45403;BME280;47427;51.976;5.326;2023-07-31T11:01:52;100546.97;;;18.89;100.00
45403;BME280;47427;51.976;5.326;2023-07-31T11:05:10;100548.22;;;18.58;100.00
45403;BME280;47427;51.976;5.326;2023-07-31T11:08:27;100552.53;;;18.67;100.00
45403;BME280;47427;51.976;5.326;2023-07-31T11:11:29;100550.19;;;18.38;100.00
45403;BME280;47427;51.976;5.326;2023-07-31T11:14:32;100557.25;;;18.44;100.00
45403;BME280;47427;51.976;5.326;2023-07-31T11:17:40;100540.34;;;18.48;100.00
45403;BME280;47427;51.976;5.326;2023-07-31T11:20:43;100555.97;;;18.78;100.00
45403;BME280;47427;51.976;5.326;2023-07-31T11:23:49;100559.88;;;19.19;100.00
45403;BME280;47427;51.976;5.326;2023-07-31T11:26:52;100545.66;;;19.20;100.00
45403;BME280;47427;51.976;5.326;2023-07-31T11:30:02;100544.75;;;19.24;100.00
45403;BME280;47427;51.976;5.326;2023-07-31T11:33:06;100541.97;;;19.31;100.00
45403;BME280;47427;51.976;5.326;2023-07-31T11:36:19;100529.31;;;19.48;100.00
45403;BME280;47427;51.976;5.326;2023-07-31T11:39:23;100529.91;;;19.65;100.00
45403;BME280;47427;51.976;5.326;2023-07-31T11:42:26;100532.44;;;19.75;100.00
45403;BME280;47427;51.976;5.326;2023-07-31T11:45:31;100533.31;;;19.77;100.00
45403;BME280;47427;51.976;5.326;2023-07-31T11:48:35;100522.50;;;19.86;100.00
45403;BME280;47427;51.976;5.326;2023-07-31T11:51:37;100521.94;;;20.18;100.00
45403;BME280;47427;51.976;5.326;2023-07-31T11:54:40;100533.88;;;20.44;100.00
45403;BME280;47427;51.976;5.326;2023-07-31T11:57:43;100535.00;;;20.30;100.00
45403;BME280;47427;51.976;5.326;2023-07-31T12:00:48;100528.94;;;20.24;100.00
45403;BME280;47427;51.976;5.326;2023-07-31T12:03:50;100535.47;;;20.06;100.00
45403;BME280;47427;51.976;5.326;2023-07-31T12:06:56;100532.38;;;20.29;100.00
45403;BME280;47427;51.976;5.326;2023-07-31T12:09:59;100538.63;;;19.77;100.00
45403;BME280;47427;51.976;5.326;2023-07-31T12:13:08;100545.31;;;19.45;100.00
45403;BME280;47427;51.976;5.326;2023-07-31T12:16:11;100539.00;;;18.89;100.00
45403;BME280;47427;51.976;5.326;2023-07-31T12:19:15;100554.38;;;18.60;100.00
45403;BME280;47427;51.976;5.326;2023-07-31T12:22:17;100529.66;;;18.54;100.00
45403;BME280;47427;51.976;5.326;2023-07-31T12:25:18;100533.72;;;18.86;100.00
45403;BME280;47427;51.976;5.326;2023-07-31T12:28:22;100521.84;;;19.11;100.00
45403;BME280;47427;51.976;5.326;2023-07-31T12:31:27;100516.31;;;19.28;100.00
45403;BME280;47427;51.976;5.326;2023-07-31T12:34:29;100510.69;;;19.46;100.00
45403;BME280;47427;51.976;5.326;2023-07-31T12:37:30;100496.63;;;19.94;100.00
45403;BME280;47427;51.976;5.326;2023-07-31T12:40:35;100493.84;;;20.45;100.00
45403;BME280;47427;51.976;5.326;2023-07-31T12:43:40;100504.44;;;21.32;100.00
45403;BME280;47427;51.976;5.326;2023-07-31T12:46:42;100494.59;;;21.72;100.00
45403;BME280;47427;51.976;5.326;2023-07-31T12:49:45;100482.88;;;22.12;100.00
45403;BME280;47427;51.976;5.326;2023-07-31T12:52:47;100491.63;;;21.84;100.00
45403;BME280;47427;51.976;5.326;2023-07-31T12:55:50;100478.19;;;21.53;100.00
45403;BME280;47427;51.976;5.326;2023-07-31T12:58:53;100480.91;;;21.12;100.00
45403;BME280;47427;51.976;5.326;2023-07-31T13:01:56;100467.31;;;21.21;100.00
45403;BME280;47427;51.976;5.326;2023-07-31T13:05:01;100466.09;;;21.72;100.00
45403;BME280;47427;51.976;5.326;2023-07-31T13:08:22;100477.38;;;21.12;100.00
45403;BME280;47427;51.976;5.326;2023-07-31T13:11:25;100492.22;;;20.38;100.00
45403;BME280;47427;51.976;5.326;2023-07-31T13:14:28;100469.13;;;19.39;100.00
45403;BME280;47427;51.976;5.326;2023-07-31T13:17:31;100478.47;;;19.09;100.00
45403;BME280;47427;51.976;5.326;2023-07-31T13:20:52;100471.50;;;18.99;100.00
45403;BME280;47427;51.976;5.326;2023-07-31T13:23:58;100472.44;;;18.96;100.00
45403;BME280;47427;51.976;5.326;2023-07-31T13:27:03;100464.53;;;18.92;100.00
45403;BME280;47427;51.976;5.326;2023-07-31T13:30:07;100459.03;;;19.04;100.00
45403;BME280;47427;51.976;5.326;2023-07-31T13:33:13;100458.06;;;19.10;100.00
45403;BME280;47427;51.976;5.326;2023-07-31T13:36:17;100453.91;;;18.90;100.00
45403;BME280;47427;51.976;5.326;2023-07-31T13:39:21;100452.00;;;19.00;100.00
45403;BME280;47427;51.976;5.326;2023-07-31T13:42:24;100451.91;;;19.08;100.00
45403;BME280;47427;51.976;5.326;2023-07-31T13:45:26;100450.34;;;18.93;100.00
45403;BME280;47427;51.976;5.326;2023-07-31T13:48:30;100446.53;;;19.11;100.00
45403;BME280;47427;51.976;5.326;2023-07-31T13:51:36;100455.66;;;18.94;100.00
45403;BME280;47427;51.976;5.326;2023-07-31T13:54:40;100464.78;;;18.72;100.00
45403;BME280;47427;51.976;5.326;2023-07-31T13:57:45;100450.03;;;18.48;100.00
45403;BME280;47427;51.976;5.326;2023-07-31T14:00:47;100454.47;;;18.46;100.00
45403;BME280;47427;51.976;5.326;2023-07-31T14:03:50;100449.00;;;18.61;100.00
45403;BME280;47427;51.976;5.326;2023-07-31T14:06:52;100451.81;;;18.49;100.00
45403;BME280;47427;51.976;5.326;2023-07-31T14:09:55;100448.22;;;18.50;100.00
45403;BME280;47427;51.976;5.326;2023-07-31T14:12:59;100444.59;;;18.57;100.00
45403;BME280;47427;51.976;5.326;2023-07-31T14:16:02;100451.72;;;18.53;100.00
45403;BME280;47427;51.976;5.326;2023-07-31T14:19:05;100457.03;;;18.55;100.00
45403;BME280;47427;51.976;5.326;2023-07-31T14:22:28;100449.97;;;18.52;100.00
45403;BME280;47427;51.976;5.326;2023-07-31T14:25:32;100443.69;;;18.59;100.00
45403;BME280;47427;51.976;5.326;2023-07-31T14:28:34;100429.59;;;18.54;100.00
45403;BME280;47427;51.976;5.326;2023-07-31T14:31:40;100415.28;;;18.63;100.00
45403;BME280;47427;51.976;5.326;2023-07-31T14:34:43;100419.47;;;18.81;100.00
45403;BME280;47427;51.976;5.326;2023-07-31T14:37:44;100418.91;;;18.59;100.00
45403;BME280;47427;51.976;5.326;2023-07-31T14:40:49;100408.34;;;18.53;100.00
45403;BME280;47427;51.976;5.326;2023-07-31T14:43:53;100423.34;;;18.55;100.00
45403;BME280;47427;51.976;5.326;2023-07-31T14:46:55;100408.28;;;18.56;100.00
45403;BME280;47427;51.976;5.326;2023-07-31T14:49:58;100419.09;;;18.42;100.00
45403;BME280;47427;51.976;5.326;2023-07-31T14:53:01;100402.31;;;18.40;100.00
45403;BME280;47427;51.976;5.326;2023-07-31T14:56:03;100388.97;;;18.43;100.00
45403;BME280;47427;51.976;5.326;2023-07-31T14:59:09;100378.34;;;18.45;100.00
45403;BME280;47427;51.976;5.326;2023-07-31T15:02:12;100386.25;;;18.48;100.00
45403;BME280;47427;51.976;5.326;2023-07-31T15:05:15;100382.84;;;18.39;100.00
45403;BME280;47427;51.976;5.326;2023-07-31T15:08:18;100379.44;;;18.30;100.00
45403;BME280;47427;51.976;5.326;2023-07-31T15:11:40;100370.53;;;18.32;100.00
45403;BME280;47427;51.976;5.326;2023-07-31T15:14:43;100366.13;;;18.31;100.00
45403;BME280;47427;51.976;5.326;2023-07-31T15:17:48;100355.50;;;18.31;100.00
45403;BME280;47427;51.976;5.326;2023-07-31T15:20:51;100354.56;;;18.35;100.00
45403;BME280;47427;51.976;5.326;2023-07-31T15:23:54;100344.63;;;18.50;100.00
45403;BME280;47427;51.976;5.326;2023-07-31T15:26:55;100342.91;;;18.46;100.00
45403;BME280;47427;51.976;5.326;2023-07-31T15:29:58;100341.16;;;18.45;100.00
45403;BME280;47427;51.976;5.326;2023-07-31T15:33:01;100341.97;;;18.48;100.00
45403;BME280;47427;51.976;5.326;2023-07-31T15:36:04;100322.56;;;18.45;100.00
45403;BME280;47427;51.976;5.326;2023-07-31T15:39:09;100321.66;;;18.46;100.00
45403;BME280;47427;51.976;5.326;2023-07-31T15:42:11;100325.31;;;18.38;100.00
45403;BME280;47427;51.976;5.326;2023-07-31T15:45:16;100314.88;;;18.25;100.00
45403;BME280;47427;51.976;5.326;2023-07-31T15:48:19;100321.09;;;18.22;100.00
45403;BME280;47427;51.976;5.326;2023-07-31T15:51:22;100308.84;;;18.10;100.00
45403;BME280;47427;51.976;5.326;2023-07-31T15:54:24;100301.09;;;17.95;100.00
45403;BME280;47427;51.976;5.326;2023-07-31T15:57:27;100295.78;;;17.98;100.00
45403;BME280;47427;51.976;5.326;2023-07-31T16:00:30;100288.94;;;17.74;100.00
45403;BME280;47427;51.976;5.326;2023-07-31T16:03:33;100279.19;;;17.81;100.00